Time;durP1;ratioP1;P1;durP2;ratioP2;P2;SDS_P1;SDS_P2;PMS_P1;PMS_P2;Temp;Humidity;BMP_temperature;BMP_pressure;BME280_temperature;BME280_humidity;BME280_pressure;Samples;Min_cycle;Max_cycle;Signal;HPM_P1;HPM_P2
2023/08/26 00:01:46;;;;;;;3.75;0.85;;;;;;;;;;5064639;28;20380;-67
2023/08/26 00:04:13;;;;;;;1.73;1.00;;;;;;;;;;5067241;28;20056;-67
2023/08/26 00:06:41;;;;;;;3.20;1.10;;;;;;;;;;5064423;28;20484;-67
2023/08/26 00:09:08;;;;;;;3.63;1.25;;;;;;;;;;5063708;28;20044;-67
2023/08/26 00:11:35;;;;;;;1.95;0.98;;;;;;;;;;5072179;28;20468;-67
2023/08/26 00:14:04;;;;;;;1.45;1.00;;;;;;;;;;5065524;28;20052;-67
2023/08/26 00:16:31;;;;;;;2.25;1.10;;;;;;;;;;5059122;28;20059;-67
2023/08/26 00:19:00;;;;;;;2.60;0.98;;;;;;;;;;5072018;28;20056;-67
2023/08/26 00:21:27;;;;;;;2.55;0.90;;;;;;;;;;5070434;28;20476;-67
2023/08/26 00:23:54;;;;;;;3.13;1.00;;;;;;;;;;5067161;28;20048;-67
2023/08/26 00:26:22;;;;;;;5.13;1.08;;;;;;;;;;5064244;28;20056;-67
2023/08/26 00:28:49;;;;;;;3.42;1.25;;;;;;;;;;5065131;28;20059;-67
2023/08/26 00:31:16;;;;;;;2.75;1.20;;;;;;;;;;5070720;28;20056;-67
2023/08/26 00:33:44;;;;;;;2.42;1.15;;;;;;;;;;5064369;28;20043;-67
2023/08/26 00:36:12;;;;;;;3.55;1.00;;;;;;;;;;5056497;28;20119;-67
2023/08/26 00:38:39;;;;;;;2.35;1.05;;;;;;;;;;5052291;28;20106;-67
2023/08/26 00:41:07;;;;;;;3.40;1.27;;;;;;;;;;5069965;28;20045;-67
2023/08/26 00:43:37;;;;;;;3.08;1.10;;;;;;;;;;5071708;28;20045;-67
2023/08/26 00:46:04;;;;;;;3.92;1.52;;;;;;;;;;5070034;28;20048;-67
2023/08/26 00:48:32;;;;;;;4.47;1.33;;;;;;;;;;5071720;28;20044;-67
2023/08/26 00:50:59;;;;;;;4.90;1.38;;;;;;;;;;5070529;28;20040;-67
2023/08/26 00:53:28;;;;;;;3.25;1.05;;;;;;;;;;5066161;28;20044;-67
2023/08/26 00:55:55;;;;;;;4.10;1.10;;;;;;;;;;5067949;28;20566;-67
2023/08/26 00:58:22;;;;;;;2.38;1.23;;;;;;;;;;5066273;28;20041;-67
2023/08/26 01:00:50;;;;;;;5.03;1.23;;;;;;;;;;5066786;28;20045;-67
2023/08/26 01:03:17;;;;;;;3.70;1.20;;;;;;;;;;5069178;28;20071;-67
2023/08/26 01:05:44;;;;;;;4.43;1.25;;;;;;;;;;5068927;28;20053;-67
2023/08/26 01:08:12;;;;;;;2.38;1.58;;;;;;;;;;5069768;28;20128;-67
2023/08/26 01:10:47;;;;;;;6.10;1.50;;;;;;;;;;5061870;28;20044;-67
2023/08/26 01:13:15;;;;;;;3.90;1.30;;;;;;;;;;5064439;28;20415;-67
2023/08/26 01:15:44;;;;;;;2.10;1.60;;;;;;;;;;5071966;28;20047;-67
2023/08/26 01:18:13;;;;;;;4.07;1.48;;;;;;;;;;5069380;28;20055;-67
2023/08/26 01:20:42;;;;;;;1.95;1.15;;;;;;;;;;5068947;28;20049;-67
2023/08/26 01:23:12;;;;;;;1.48;1.00;;;;;;;;;;5069170;28;21315;-67
2023/08/26 01:25:41;;;;;;;1.73;1.33;;;;;;;;;;5071270;28;20387;-67
2023/08/26 01:28:08;;;;;;;5.82;1.02;;;;;;;;;;5068039;28;20070;-67
2023/08/26 01:30:36;;;;;;;2.83;1.00;;;;;;;;;;5070493;28;20099;-67
2023/08/26 01:33:06;;;;;;;1.80;1.13;;;;;;;;;;5066024;28;20045;-67
2023/08/26 01:35:34;;;;;;;3.45;1.20;;;;;;;;;;5063715;28;20048;-67
2023/08/26 01:38:02;;;;;;;2.13;1.05;;;;;;;;;;5057265;28;20386;-67
2023/08/26 01:40:30;;;;;;;1.90;1.10;;;;;;;;;;5064758;28;20051;-67
2023/08/26 01:42:59;;;;;;;1.95;1.05;;;;;;;;;;5064683;28;20084;-67
2023/08/26 01:45:27;;;;;;;3.35;1.10;;;;;;;;;;5050306;28;20049;-67
2023/08/26 01:47:54;;;;;;;1.73;1.10;;;;;;;;;;5068048;28;20048;-67
2023/08/26 01:50:21;;;;;;;1.50;1.10;;;;;;;;;;5070419;28;20045;-67
2023/08/26 01:52:48;;;;;;;2.33;1.38;;;;;;;;;;5067930;28;20461;-67
2023/08/26 01:55:16;;;;;;;1.13;1.02;;;;;;;;;;5066342;28;20148;-67
2023/08/26 01:57:43;;;;;;;2.05;1.33;;;;;;;;;;5061656;28;20047;-67
2023/08/26 02:00:12;;;;;;;7.72;1.33;;;;;;;;;;5062319;28;20056;-67
2023/08/26 02:02:40;;;;;;;2.13;1.20;;;;;;;;;;5058799;28;20491;-67
2023/08/26 02:05:07;;;;;;;1.88;1.33;;;;;;;;;;5068440;28;20052;-67
2023/08/26 02:07:34;;;;;;;4.68;1.20;;;;;;;;;;5063749;28;20076;-67
2023/08/26 02:10:02;;;;;;;1.08;0.88;;;;;;;;;;5066774;28;20037;-67
2023/08/26 02:12:29;;;;;;;3.15;1.20;;;;;;;;;;5051640;28;20072;-67
2023/08/26 02:14:56;;;;;;;6.38;1.20;;;;;;;;;;5050383;28;20110;-67
2023/08/26 02:17:25;;;;;;;1.63;1.20;;;;;;;;;;5061681;28;20127;-67
2023/08/26 02:19:52;;;;;;;2.20;1.08;;;;;;;;;;5049002;28;20411;-67
2023/08/26 02:22:19;;;;;;;1.90;1.10;;;;;;;;;;5067147;28;20433;-67
2023/08/26 02:24:47;;;;;;;1.35;1.05;;;;;;;;;;5070150;28;20056;-67
2023/08/26 02:27:15;;;;;;;3.97;1.05;;;;;;;;;;5048632;28;20057;-67
2023/08/26 02:29:42;;;;;;;3.13;1.05;;;;;;;;;;5064608;28;20040;-67
2023/08/26 02:32:09;;;;;;;3.22;1.20;;;;;;;;;;5060256;28;20051;-67
2023/08/26 02:34:38;;;;;;;2.40;1.10;;;;;;;;;;5064988;28;20442;-67
2023/08/26 02:37:05;;;;;;;2.72;1.20;;;;;;;;;;5061449;28;20072;-67
2023/08/26 02:39:32;;;;;;;1.80;1.02;;;;;;;;;;5068135;28;20500;-67
2023/08/26 02:42:00;;;;;;;1.38;1.00;;;;;;;;;;5065697;28;20041;-67
2023/08/26 02:44:27;;;;;;;3.88;1.10;;;;;;;;;;5069520;28;20071;-67
2023/08/26 02:46:54;;;;;;;2.75;1.40;;;;;;;;;;5064429;28;20055;-67
2023/08/26 02:49:21;;;;;;;2.47;1.17;;;;;;;;;;5068787;28;20055;-67
2023/08/26 02:51:50;;;;;;;4.43;1.10;;;;;;;;;;5068506;28;20150;-67
2023/08/26 02:54:17;;;;;;;3.03;1.00;;;;;;;;;;5068088;28;20044;-66
2023/08/26 02:56:44;;;;;;;2.45;1.10;;;;;;;;;;5069950;28;20056;-67
2023/08/26 02:59:12;;;;;;;2.22;1.00;;;;;;;;;;5065994;28;20041;-66
2023/08/26 03:01:39;;;;;;;1.50;1.17;;;;;;;;;;5067796;28;20040;-67
2023/08/26 03:04:06;;;;;;;2.20;1.00;;;;;;;;;;5068029;28;20040;-67
2023/08/26 03:06:33;;;;;;;2.25;1.00;;;;;;;;;;5065965;28;20058;-67
2023/08/26 03:09:02;;;;;;;3.00;1.30;;;;;;;;;;5060344;28;20048;-67
2023/08/26 03:11:29;;;;;;;3.15;1.13;;;;;;;;;;5071894;28;20084;-67
2023/08/26 03:13:57;;;;;;;1.60;1.17;;;;;;;;;;5072568;28;20044;-67
2023/08/26 03:16:24;;;;;;;3.75;1.10;;;;;;;;;;5054761;28;20067;-67
2023/08/26 03:18:51;;;;;;;1.40;1.08;;;;;;;;;;5060799;28;20044;-67
2023/08/26 03:21:18;;;;;;;2.92;1.05;;;;;;;;;;5061253;28;20053;-67
2023/08/26 03:23:45;;;;;;;3.15;1.00;;;;;;;;;;5055545;28;20048;-67
2023/08/26 03:26:14;;;;;;;5.03;0.88;;;;;;;;;;5068468;28;20055;-67
2023/08/26 03:28:41;;;;;;;1.13;0.70;;;;;;;;;;5072440;28;20064;-67
2023/08/26 03:31:08;;;;;;;7.10;0.88;;;;;;;;;;5072497;28;20441;-67
2023/08/26 03:33:36;;;;;;;1.52;0.80;;;;;;;;;;5062407;28;20049;-67
2023/08/26 03:36:04;;;;;;;4.22;1.13;;;;;;;;;;5067863;28;20051;-67
2023/08/26 03:38:32;;;;;;;1.80;0.93;;;;;;;;;;5063866;28;20049;-67
2023/08/26 03:40:59;;;;;;;3.08;0.95;;;;;;;;;;5046430;28;20053;-67
2023/08/26 03:43:28;;;;;;;3.10;0.98;;;;;;;;;;5072282;28;20048;-67
2023/08/26 03:45:55;;;;;;;1.85;0.90;;;;;;;;;;5071812;28;20048;-67
2023/08/26 03:48:22;;;;;;;2.13;1.02;;;;;;;;;;5069064;28;20056;-67
2023/08/26 03:50:52;;;;;;;1.60;1.00;;;;;;;;;;5071903;28;20053;-67
2023/08/26 03:53:19;;;;;;;3.08;1.20;;;;;;;;;;5071846;28;20067;-67
2023/08/26 03:55:47;;;;;;;3.40;1.13;;;;;;;;;;5070627;28;20051;-67
2023/08/26 03:58:14;;;;;;;4.47;1.52;;;;;;;;;;5073228;28;20057;-67
2023/08/26 04:00:43;;;;;;;2.63;1.48;;;;;;;;;;5068302;28;20048;-67
2023/08/26 04:03:11;;;;;;;4.45;1.40;;;;;;;;;;5068723;28;20126;-66
2023/08/26 04:05:39;;;;;;;2.15;1.10;;;;;;;;;;5072030;28;20084;-67
2023/08/26 04:08:06;;;;;;;1.80;1.25;;;;;;;;;;5071510;28;20051;-67
2023/08/26 04:10:34;;;;;;;1.52;1.20;;;;;;;;;;5072555;28;20049;-67
2023/08/26 04:13:02;;;;;;;4.28;1.48;;;;;;;;;;5071243;28;20036;-67
2023/08/26 04:15:29;;;;;;;2.63;1.30;;;;;;;;;;5070778;28;20434;-67
2023/08/26 04:17:58;;;;;;;2.15;1.20;;;;;;;;;;5066108;28;20059;-67
2023/08/26 04:20:25;;;;;;;3.85;1.40;;;;;;;;;;5070169;28;20126;-67
2023/08/26 04:22:52;;;;;;;1.20;1.00;;;;;;;;;;5069599;28;20067;-67
2023/08/26 04:25:20;;;;;;;3.78;1.20;;;;;;;;;;5070366;28;20052;-67
2023/08/26 04:27:47;;;;;;;3.33;1.30;;;;;;;;;;5062253;28;20045;-66
2023/08/26 04:30:14;;;;;;;5.97;1.40;;;;;;;;;;5065014;28;20407;-67
2023/08/26 04:32:42;;;;;;;2.65;1.38;;;;;;;;;;5060296;28;20044;-66
2023/08/26 04:35:10;;;;;;;2.92;1.42;;;;;;;;;;5070835;28;20051;-67
2023/08/26 04:37:39;;;;;;;2.33;1.45;;;;;;;;;;5067017;28;20055;-66
2023/08/26 04:40:12;;;;;;;4.10;1.42;;;;;;;;;;5059918;28;20053;-67
2023/08/26 04:42:39;;;;;;;4.18;1.60;;;;;;;;;;5064683;28;20052;-67
2023/08/26 04:45:07;;;;;;;1.60;1.30;;;;;;;;;;5063580;28;20407;-67
2023/08/26 04:47:34;;;;;;;1.88;1.15;;;;;;;;;;5070826;28;20048;-67
2023/08/26 04:50:03;;;;;;;2.78;1.33;;;;;;;;;;5068227;28;20051;-67
2023/08/26 04:52:32;;;;;;;1.92;1.20;;;;;;;;;;5070707;28;20078;-66
2023/08/26 04:54:59;;;;;;;1.73;1.25;;;;;;;;;;5060955;28;20040;-67
2023/08/26 04:57:26;;;;;;;2.65;1.70;;;;;;;;;;5067709;28;20067;-66
2023/08/26 04:59:54;;;;;;;3.72;1.30;;;;;;;;;;5071670;28;20131;-67
2023/08/26 05:02:21;;;;;;;3.75;1.45;;;;;;;;;;5050482;28;20064;-67
2023/08/26 05:04:48;;;;;;;3.35;1.30;;;;;;;;;;5068312;28;20051;-67
2023/08/26 05:07:16;;;;;;;2.55;1.30;;;;;;;;;;5071368;28;20140;-67
2023/08/26 05:09:44;;;;;;;2.70;1.50;;;;;;;;;;5068115;28;20049;-67
2023/08/26 05:12:12;;;;;;;2.60;1.67;;;;;;;;;;5060932;28;20400;-67
2023/08/26 05:14:39;;;;;;;3.38;1.80;;;;;;;;;;5067734;28;20044;-67
2023/08/26 05:17:06;;;;;;;5.00;1.65;;;;;;;;;;5052473;28;20052;-66
2023/08/26 05:19:33;;;;;;;4.60;2.20;;;;;;;;;;5067719;28;20059;-67
2023/08/26 05:22:01;;;;;;;4.40;1.50;;;;;;;;;;5068422;28;20048;-67
2023/08/26 05:24:30;;;;;;;2.80;1.52;;;;;;;;;;5062445;28;20373;-67
2023/08/26 05:26:59;;;;;;;2.63;1.63;;;;;;;;;;5067021;28;20053;-67
2023/08/26 05:29:26;;;;;;;3.53;1.92;;;;;;;;;;5059085;28;20098;-67
2023/08/26 05:31:53;;;;;;;2.40;1.90;;;;;;;;;;5053238;28;20049;-67
2023/08/26 05:34:20;;;;;;;2.67;1.88;;;;;;;;;;5064919;28;20349;-67
2023/08/26 05:36:47;;;;;;;5.90;1.90;;;;;;;;;;5062605;28;20048;-67
2023/08/26 05:39:15;;;;;;;3.42;2.00;;;;;;;;;;5060507;28;20123;-66
2023/08/26 05:41:42;;;;;;;4.25;2.20;;;;;;;;;;5036678;28;20065;-67
2023/08/26 05:44:10;;;;;;;3.53;2.03;;;;;;;;;;5054121;28;20499;-66
2023/08/26 05:46:38;;;;;;;3.53;2.15;;;;;;;;;;5062238;28;20059;-67
2023/08/26 05:49:05;;;;;;;3.95;1.88;;;;;;;;;;5060931;28;20128;-67
2023/08/26 05:51:32;;;;;;;3.78;2.30;;;;;;;;;;5053667;28;20518;-67
2023/08/26 05:54:00;;;;;;;5.15;2.20;;;;;;;;;;5064303;28;20407;-67
2023/08/26 05:56:27;;;;;;;4.43;1.98;;;;;;;;;;5070459;28;20048;-67
2023/08/26 05:58:54;;;;;;;3.53;1.73;;;;;;;;;;5058751;28;20067;-67
2023/08/26 06:01:23;;;;;;;4.43;2.00;;;;;;;;;;5061396;28;20052;-67
2023/08/26 06:03:50;;;;;;;5.47;2.08;;;;;;;;;;5051236;28;20066;-67
2023/08/26 06:06:17;;;;;;;4.72;2.40;;;;;;;;;;5069607;28;20059;-67
2023/08/26 06:08:45;;;;;;;3.80;2.30;;;;;;;;;;5069581;28;20059;-67
2023/08/26 06:11:12;;;;;;;8.25;2.50;;;;;;;;;;5061325;28;20040;-67
2023/08/26 06:13:39;;;;;;;3.90;2.65;;;;;;;;;;5068263;28;20048;-67
2023/08/26 06:16:06;;;;;;;5.22;2.22;;;;;;;;;;5069145;28;20059;-66
2023/08/26 06:18:35;;;;;;;5.03;2.40;;;;;;;;;;5068766;28;20052;-66
2023/08/26 06:21:01;;;;;;;5.20;2.42;;;;;;;;;;5064162;28;20399;-67
2023/08/26 06:23:29;;;;;;;6.22;2.95;;;;;;;;;;5061962;28;20044;-67
2023/08/26 06:25:57;;;;;;;4.45;2.40;;;;;;;;;;5058895;28;20439;-67
2023/08/26 06:28:24;;;;;;;3.38;2.22;;;;;;;;;;5068204;28;20045;-68
2023/08/26 06:30:52;;;;;;;3.83;2.35;;;;;;;;;;5070455;28;20491;-67
2023/08/26 06:33:19;;;;;;;5.18;2.50;;;;;;;;;;5069376;28;20052;-67
2023/08/26 06:35:48;;;;;;;4.28;2.22;;;;;;;;;;5062203;28;20412;-67
2023/08/26 06:38:16;;;;;;;4.57;2.60;;;;;;;;;;5065229;28;20055;-67
2023/08/26 06:40:43;;;;;;;4.00;2.78;;;;;;;;;;5073778;28;20423;-67
2023/08/26 06:43:10;;;;;;;3.80;2.80;;;;;;;;;;5067173;28;20044;-67
2023/08/26 06:45:37;;;;;;;7.07;2.72;;;;;;;;;;5072590;28;20053;-67
2023/08/26 06:48:05;;;;;;;5.80;3.42;;;;;;;;;;5070794;28;20495;-67
2023/08/26 06:50:32;;;;;;;4.53;3.08;;;;;;;;;;5068178;28;20044;-67
2023/08/26 06:53:00;;;;;;;4.78;3.25;;;;;;;;;;5074340;28;20052;-67
2023/08/26 06:55:28;;;;;;;5.72;3.63;;;;;;;;;;5073099;28;20724;-67
2023/08/26 06:57:55;;;;;;;6.30;4.10;;;;;;;;;;5073962;28;20460;-67
2023/08/26 07:00:22;;;;;;;6.85;3.97;;;;;;;;;;5072492;28;20036;-67
2023/08/26 07:02:49;;;;;;;6.45;4.15;;;;;;;;;;5071276;28;20411;-66
2023/08/26 07:05:17;;;;;;;8.23;4.20;;;;;;;;;;5059058;28;20045;-67
2023/08/26 07:07:44;;;;;;;6.68;4.20;;;;;;;;;;5058188;28;20139;-67
2023/08/26 07:10:13;;;;;;;8.38;4.25;;;;;;;;;;5063704;28;20048;-66
2023/08/26 07:12:40;;;;;;;7.97;4.35;;;;;;;;;;5064668;28;20446;-67
2023/08/26 07:15:08;;;;;;;6.13;3.97;;;;;;;;;;5069559;28;20041;-67
2023/08/26 07:17:35;;;;;;;9.05;4.25;;;;;;;;;;5061429;28;20539;-67
2023/08/26 07:20:02;;;;;;;6.15;4.18;;;;;;;;;;5060400;28;20056;-67
2023/08/26 07:22:30;;;;;;;6.03;3.92;;;;;;;;;;5064995;28;20052;-67
2023/08/26 07:24:57;;;;;;;7.47;4.38;;;;;;;;;;5064624;28;20053;-67
2023/08/26 07:27:25;;;;;;;6.07;4.07;;;;;;;;;;5065378;28;20044;-67
2023/08/26 07:29:53;;;;;;;6.65;4.25;;;;;;;;;;5069705;28;20513;-67
2023/08/26 07:32:21;;;;;;;6.70;4.50;;;;;;;;;;5072396;28;20125;-67
2023/08/26 07:34:48;;;;;;;5.72;4.20;;;;;;;;;;5069138;28;20400;-67
2023/08/26 07:37:15;;;;;;;5.40;3.88;;;;;;;;;;5067848;28;20848;-67
2023/08/26 07:39:42;;;;;;;8.85;4.75;;;;;;;;;;5063505;28;20049;-67
2023/08/26 07:42:10;;;;;;;7.43;4.72;;;;;;;;;;5057225;28;20044;-66
2023/08/26 07:44:38;;;;;;;6.15;3.80;;;;;;;;;;5063006;28;20403;-67
2023/08/26 07:47:05;;;;;;;8.55;3.95;;;;;;;;;;5067191;28;20051;-67
2023/08/26 07:49:33;;;;;;;4.75;3.00;;;;;;;;;;5076234;28;20045;-67
2023/08/26 07:52:00;;;;;;;5.57;3.28;;;;;;;;;;5071867;28;20488;-67
2023/08/26 07:54:27;;;;;;;5.65;3.55;;;;;;;;;;5072712;28;20040;-68
2023/08/26 07:56:55;;;;;;;4.18;3.10;;;;;;;;;;5075924;28;20048;-67
2023/08/26 07:59:22;;;;;;;5.13;3.35;;;;;;;;;;5073144;28;20047;-66
2023/08/26 08:01:51;;;;;;;4.25;3.28;;;;;;;;;;5063425;28;20404;-67
2023/08/26 08:04:18;;;;;;;7.20;3.60;;;;;;;;;;5066619;28;20052;-67
2023/08/26 08:06:45;;;;;;;6.03;3.03;;;;;;;;;;5070934;28;20146;-66
2023/08/26 08:09:13;;;;;;;4.60;3.20;;;;;;;;;;5072020;28;20080;-67
2023/08/26 08:11:40;;;;;;;3.47;2.80;;;;;;;;;;5069983;28;20045;-67
2023/08/26 08:14:07;;;;;;;5.15;3.08;;;;;;;;;;5068706;28;20049;-68
2023/08/26 08:16:34;;;;;;;5.07;2.85;;;;;;;;;;5071358;28;20049;-67
2023/08/26 08:19:03;;;;;;;3.80;2.38;;;;;;;;;;5071095;28;20044;-67
2023/08/26 08:21:31;;;;;;;4.65;2.20;;;;;;;;;;5064658;28;20443;-67
2023/08/26 08:24:00;;;;;;;4.97;1.80;;;;;;;;;;5070306;28;20483;-67
2023/08/26 08:26:28;;;;;;;5.00;1.85;;;;;;;;;;5070871;28;20047;-68
2023/08/26 08:28:55;;;;;;;3.60;1.75;;;;;;;;;;5063412;28;20048;-66
2023/08/26 08:31:23;;;;;;;2.42;1.40;;;;;;;;;;5071608;28;20500;-67
2023/08/26 08:33:50;;;;;;;2.75;1.00;;;;;;;;;;5072746;28;20056;-68
2023/08/26 08:36:19;;;;;;;3.63;1.10;;;;;;;;;;5071089;28;20044;-67
2023/08/26 08:38:46;;;;;;;3.05;1.20;;;;;;;;;;5071284;28;20052;-67
2023/08/26 08:41:14;;;;;;;2.13;1.00;;;;;;;;;;5072022;28;20802;-66
2023/08/26 08:43:43;;;;;;;2.67;1.10;;;;;;;;;;5069735;28;20052;-67
2023/08/26 08:46:10;;;;;;;3.38;1.05;;;;;;;;;;5069926;28;20045;-67
2023/08/26 08:48:37;;;;;;;2.20;1.13;;;;;;;;;;5064264;28;20048;-68
2023/08/26 08:51:05;;;;;;;2.67;1.48;;;;;;;;;;5070757;28;20036;-67
2023/08/26 08:53:34;;;;;;;3.17;0.80;;;;;;;;;;5072209;28;20408;-67
2023/08/26 08:56:01;;;;;;;3.15;0.60;;;;;;;;;;5068326;28;20130;-67
2023/08/26 08:58:29;;;;;;;2.60;0.80;;;;;;;;;;5065915;28;20067;-67
2023/08/26 09:00:57;;;;;;;1.70;0.50;;;;;;;;;;5071894;28;20076;-67
2023/08/26 09:03:24;;;;;;;1.65;0.70;;;;;;;;;;5052641;28;20044;-67
2023/08/26 09:05:52;;;;;;;0.90;0.60;;;;;;;;;;5071652;28;20048;-66
2023/08/26 09:08:20;;;;;;;2.10;0.70;;;;;;;;;;5066711;28;20052;-68
2023/08/26 09:10:49;;;;;;;1.60;0.70;;;;;;;;;;5064778;28;20060;-67
2023/08/26 09:13:16;;;;;;;1.77;0.90;;;;;;;;;;5059652;28;20507;-68
2023/08/26 09:15:44;;;;;;;1.98;0.80;;;;;;;;;;5070382;28;20051;-68
2023/08/26 09:18:12;;;;;;;2.80;0.77;;;;;;;;;;5064041;28;20048;-68
2023/08/26 09:20:40;;;;;;;1.42;0.70;;;;;;;;;;5070801;28;20107;-68
2023/08/26 09:23:07;;;;;;;1.17;0.77;;;;;;;;;;5070152;28;20045;-67
2023/08/26 09:25:35;;;;;;;1.30;0.70;;;;;;;;;;5069503;28;20052;-67
2023/08/26 09:28:04;;;;;;;3.65;0.80;;;;;;;;;;5065296;28;20463;-68
2023/08/26 09:30:32;;;;;;;2.47;0.80;;;;;;;;;;5067392;28;20105;-68
2023/08/26 09:32:59;;;;;;;2.72;0.93;;;;;;;;;;5065311;28;20044;-68
2023/08/26 09:35:26;;;;;;;4.22;1.40;;;;;;;;;;5069798;28;20041;-67
2023/08/26 09:38:00;;;;;;;5.15;1.20;;;;;;;;;;5067604;28;20518;-67
2023/08/26 09:40:27;;;;;;;4.35;1.58;;;;;;;;;;5060691;28;20045;-67
2023/08/26 09:42:54;;;;;;;6.18;1.73;;;;;;;;;;5070227;28;20403;-67
2023/08/26 09:45:23;;;;;;;2.63;1.65;;;;;;;;;;5068275;28;20049;-67
2023/08/26 09:47:51;;;;;;;4.75;1.85;;;;;;;;;;5068535;28;20054;-67
2023/08/26 09:50:18;;;;;;;5.40;1.75;;;;;;;;;;5070897;28;20048;-66
2023/08/26 09:52:46;;;;;;;3.25;1.75;;;;;;;;;;5060160;28;20052;-68
2023/08/26 09:55:13;;;;;;;5.70;2.20;;;;;;;;;;5049912;28;20057;-68
2023/08/26 09:57:41;;;;;;;6.68;2.50;;;;;;;;;;5069858;28;20049;-68
2023/08/26 10:00:10;;;;;;;5.10;2.45;;;;;;;;;;5070103;28;20048;-68
2023/08/26 10:02:39;;;;;;;4.85;2.53;;;;;;;;;;5065251;28;20132;-68
2023/08/26 10:05:10;;;;;;;4.55;2.70;;;;;;;;;;5065497;28;20080;-68
2023/08/26 10:07:38;;;;;;;5.82;2.72;;;;;;;;;;5068769;28;20061;-68
2023/08/26 10:10:08;;;;;;;6.65;2.80;;;;;;;;;;5068098;28;20048;-69
2023/08/26 10:12:39;;;;;;;5.38;2.97;;;;;;;;;;5069039;28;20041;-69
2023/08/26 10:15:09;;;;;;;5.45;2.30;;;;;;;;;;5067081;28;20055;-68
2023/08/26 10:17:37;;;;;;;3.85;2.35;;;;;;;;;;5062180;28;20045;-68
2023/08/26 10:20:07;;;;;;;3.10;1.65;;;;;;;;;;5065446;28;20052;-69
2023/08/26 10:22:34;;;;;;;2.28;1.33;;;;;;;;;;5066888;28;20555;-68
2023/08/26 10:25:03;;;;;;;1.88;1.30;;;;;;;;;;5066481;28;20415;-67
2023/08/26 10:27:30;;;;;;;1.65;1.00;;;;;;;;;;5070673;28;20124;-69
2023/08/26 10:29:57;;;;;;;1.50;0.90;;;;;;;;;;5070147;28;20056;-68
2023/08/26 10:32:24;;;;;;;3.22;1.13;;;;;;;;;;5051325;28;20049;-69
2023/08/26 10:34:55;;;;;;;4.00;1.38;;;;;;;;;;5063699;28;20048;-68
2023/08/26 10:37:25;;;;;;;6.07;1.00;;;;;;;;;;5070449;28;20048;-68
2023/08/26 10:39:53;;;;;;;1.55;1.10;;;;;;;;;;5060904;28;20637;-68
2023/08/26 10:42:21;;;;;;;3.42;1.23;;;;;;;;;;5070092;28;20036;-68
2023/08/26 10:44:50;;;;;;;2.33;1.30;;;;;;;;;;5058918;28;20056;-68
2023/08/26 10:47:35;;;;;;;2.67;1.10;;;;;;;;;;5069156;28;20049;-69
2023/08/26 10:50:15;;;;;;;1.77;0.80;;;;;;;;;;5067901;28;20052;-69
2023/08/26 10:52:44;;;;;;;4.22;1.00;;;;;;;;;;5068043;28;20052;-68
2023/08/26 10:55:14;;;;;;;2.42;0.80;;;;;;;;;;5064019;28;20045;-67
2023/08/26 10:58:01;;;;;;;1.52;1.10;;;;;;;;;;5067902;28;20052;-68
2023/08/26 11:00:28;;;;;;;2.53;1.40;;;;;;;;;;5051660;28;20410;-68
2023/08/26 11:02:56;;;;;;;2.15;1.30;;;;;;;;;;5052051;28;20055;-68
2023/08/26 11:05:23;;;;;;;1.88;1.20;;;;;;;;;;5069472;28;20045;-67
2023/08/26 11:07:51;;;;;;;2.47;1.35;;;;;;;;;;5064374;28;20067;-67
2023/08/26 11:10:28;;;;;;;4.32;1.35;;;;;;;;;;5069227;28;20060;-69
2023/08/26 11:12:55;;;;;;;2.30;1.27;;;;;;;;;;5052189;28;20488;-68
2023/08/26 11:15:23;;;;;;;2.20;1.40;;;;;;;;;;5070220;28;20500;-68
2023/08/26 11:17:50;;;;;;;4.35;1.10;;;;;;;;;;5058682;28;20063;-68
2023/08/26 11:20:17;;;;;;;2.92;0.73;;;;;;;;;;5067017;28;20048;-68
2023/08/26 11:22:45;;;;;;;3.90;1.40;;;;;;;;;;5067439;28;20053;-67
2023/08/26 11:25:15;;;;;;;2.60;1.20;;;;;;;;;;5067136;28;20114;-67
2023/08/26 11:27:42;;;;;;;1.90;0.90;;;;;;;;;;5061689;28;20048;-68
2023/08/26 11:30:10;;;;;;;2.90;0.80;;;;;;;;;;5066554;28;20135;-67
2023/08/26 11:32:38;;;;;;;0.80;0.60;;;;;;;;;;5054382;28;20051;-67
2023/08/26 11:35:06;;;;;;;0.60;0.60;;;;;;;;;;5057146;28;20045;-67
2023/08/26 11:37:34;;;;;;;1.13;0.65;;;;;;;;;;5061956;28;20052;-68
2023/08/26 11:40:03;;;;;;;3.03;0.95;;;;;;;;;;5050422;28;20064;-67
2023/08/26 11:42:32;;;;;;;1.35;1.00;;;;;;;;;;5060847;28;20051;-68
2023/08/26 11:44:59;;;;;;;2.55;1.10;;;;;;;;;;5059928;28;20052;-69
2023/08/26 11:47:26;;;;;;;2.58;1.10;;;;;;;;;;5062232;28;20052;-67
2023/08/26 11:49:55;;;;;;;2.90;1.08;;;;;;;;;;5066780;28;20450;-69
2023/08/26 11:52:24;;;;;;;3.72;1.13;;;;;;;;;;5072429;28;20679;-68
2023/08/26 11:54:52;;;;;;;3.85;0.90;;;;;;;;;;5069720;28;20040;-68
2023/08/26 11:57:20;;;;;;;2.00;0.70;;;;;;;;;;5071378;28;20075;-65
2023/08/26 11:59:48;;;;;;;2.15;0.90;;;;;;;;;;5062616;28;20059;-68
2023/08/26 12:02:19;;;;;;;1.58;0.98;;;;;;;;;;5059453;28;20515;-66
2023/08/26 12:04:46;;;;;;;2.35;0.80;;;;;;;;;;5064065;28;21676;-67
2023/08/26 12:07:14;;;;;;;5.97;0.93;;;;;;;;;;5071076;28;20064;-67
2023/08/26 12:09:42;;;;;;;2.45;0.80;;;;;;;;;;5072837;28;20059;-66
2023/08/26 12:12:09;;;;;;;5.00;0.80;;;;;;;;;;5072574;28;20040;-66
2023/08/26 12:14:36;;;;;;;1.30;0.85;;;;;;;;;;5070742;28;20055;-67
2023/08/26 12:17:06;;;;;;;2.75;0.95;;;;;;;;;;5074895;28;20051;-66
2023/08/26 12:19:33;;;;;;;1.40;0.90;;;;;;;;;;5050112;28;20419;-67
2023/08/26 12:22:01;;;;;;;1.67;1.05;;;;;;;;;;5076692;28;20483;-68
2023/08/26 12:24:28;;;;;;;3.55;1.20;;;;;;;;;;5071527;28;20045;-68
2023/08/26 12:26:55;;;;;;;1.83;0.85;;;;;;;;;;5072963;28;20040;-68
2023/08/26 12:29:23;;;;;;;2.35;0.90;;;;;;;;;;5082265;28;20500;-67
2023/08/26 12:31:50;;;;;;;2.50;1.20;;;;;;;;;;5071505;28;20458;-68
2023/08/26 12:34:19;;;;;;;3.50;1.38;;;;;;;;;;5072686;28;20045;-67
2023/08/26 12:36:46;;;;;;;3.22;1.33;;;;;;;;;;5063467;28;20052;-67
2023/08/26 12:39:13;;;;;;;3.05;1.13;;;;;;;;;;5071013;28;20057;-69
2023/08/26 12:41:41;;;;;;;4.70;1.20;;;;;;;;;;5064851;28;20148;-68
2023/08/26 12:44:08;;;;;;;1.70;0.70;;;;;;;;;;5069188;28;20131;-67
2023/08/26 12:46:36;;;;;;;2.58;0.77;;;;;;;;;;5064373;28;20075;-67
2023/08/26 12:49:03;;;;;;;1.48;1.00;;;;;;;;;;5057522;28;20091;-67
2023/08/26 12:51:32;;;;;;;3.65;1.00;;;;;;;;;;5072088;28;20048;-67
2023/08/26 12:53:59;;;;;;;1.85;1.02;;;;;;;;;;5070709;28;20055;-67
2023/08/26 12:56:26;;;;;;;1.92;0.93;;;;;;;;;;5068652;28;20044;-67
2023/08/26 12:58:54;;;;;;;2.33;0.80;;;;;;;;;;5067224;28;20071;-67
2023/08/26 13:01:21;;;;;;;1.00;0.80;;;;;;;;;;5062654;28;20049;-67
2023/08/26 13:03:48;;;;;;;1.70;0.80;;;;;;;;;;5071482;28;20067;-67
2023/08/26 13:06:15;;;;;;;1.30;0.80;;;;;;;;;;5067736;28;20052;-68
2023/08/26 13:08:44;;;;;;;2.28;1.10;;;;;;;;;;5055658;28;20052;-68
2023/08/26 13:11:11;;;;;;;1.88;0.80;;;;;;;;;;5049634;28;20041;-66
2023/08/26 13:13:38;;;;;;;1.25;0.77;;;;;;;;;;5051413;28;20045;-68
2023/08/26 13:16:06;;;;;;;0.88;0.80;;;;;;;;;;5049821;28;20515;-68
2023/08/26 13:18:33;;;;;;;1.00;0.70;;;;;;;;;;5047880;28;20048;-67
2023/08/26 13:21:00;;;;;;;1.90;0.80;;;;;;;;;;5053765;28;20071;-67
2023/08/26 13:23:27;;;;;;;2.00;0.93;;;;;;;;;;5049204;28;20038;-67
2023/08/26 13:25:56;;;;;;;1.33;0.90;;;;;;;;;;5033249;28;20432;-67
2023/08/26 13:28:23;;;;;;;2.30;0.95;;;;;;;;;;5051099;28;20496;-67
2023/08/26 13:30:50;;;;;;;1.98;0.70;;;;;;;;;;5052091;28;20045;-69
2023/08/26 13:33:17;;;;;;;1.33;0.82;;;;;;;;;;5050514;28;20061;-68
2023/08/26 13:35:45;;;;;;;3.03;1.05;;;;;;;;;;5051269;28;20156;-67
2023/08/26 13:38:12;;;;;;;2.55;1.23;;;;;;;;;;5047461;28;20045;-68
2023/08/26 13:40:39;;;;;;;1.55;0.80;;;;;;;;;;5033453;28;20057;-67
2023/08/26 13:43:08;;;;;;;4.25;0.85;;;;;;;;;;5049754;28;20041;-67
2023/08/26 13:45:35;;;;;;;2.50;0.90;;;;;;;;;;5049804;28;20041;-68
2023/08/26 13:48:03;;;;;;;1.73;0.68;;;;;;;;;;5031740;28;20416;-67
2023/08/26 13:50:30;;;;;;;1.67;0.82;;;;;;;;;;5049905;28;20476;-68
2023/08/26 13:52:57;;;;;;;3.22;0.70;;;;;;;;;;5045759;28;20053;-67
2023/08/26 13:55:25;;;;;;;1.13;0.70;;;;;;;;;;5042471;28;20056;-67
2023/08/26 13:57:52;;;;;;;1.48;0.65;;;;;;;;;;5050670;28;20053;-67
2023/08/26 14:00:21;;;;;;;1.25;0.70;;;;;;;;;;5049314;28;20061;-67
2023/08/26 14:02:49;;;;;;;0.90;0.50;;;;;;;;;;5049696;28;20037;-67
2023/08/26 14:05:16;;;;;;;2.15;0.70;;;;;;;;;;5047039;28;20041;-68
2023/08/26 14:07:44;;;;;;;1.20;0.68;;;;;;;;;;5050862;28;20511;-67
2023/08/26 14:10:12;;;;;;;3.63;0.75;;;;;;;;;;5052271;28;20065;-67
2023/08/26 14:12:39;;;;;;;1.17;0.68;;;;;;;;;;5051520;28;20057;-68
2023/08/26 14:15:08;;;;;;;2.28;0.70;;;;;;;;;;5051791;28;20095;-67
2023/08/26 14:17:37;;;;;;;1.30;0.75;;;;;;;;;;5053212;28;20049;-67
2023/08/26 14:20:04;;;;;;;1.70;0.60;;;;;;;;;;5035096;28;20049;-68
2023/08/26 14:22:32;;;;;;;1.63;0.70;;;;;;;;;;5051403;28;20052;-68
2023/08/26 14:25:00;;;;;;;1.30;0.75;;;;;;;;;;5049793;28;20044;-67
2023/08/26 14:27:27;;;;;;;3.42;0.82;;;;;;;;;;5045973;28;20095;-67
2023/08/26 14:29:55;;;;;;;2.17;0.80;;;;;;;;;;5050178;28;20098;-70
2023/08/26 14:32:23;;;;;;;2.78;0.80;;;;;;;;;;5040680;28;20047;-67
2023/08/26 14:34:51;;;;;;;1.80;0.73;;;;;;;;;;5051367;28;20052;-68
2023/08/26 14:37:18;;;;;;;1.65;0.70;;;;;;;;;;5061289;28;20045;-68
2023/08/26 14:39:46;;;;;;;1.30;0.80;;;;;;;;;;5061924;28;20055;-67
2023/08/26 14:42:13;;;;;;;1.10;0.70;;;;;;;;;;5058181;28;20040;-68
2023/08/26 14:44:40;;;;;;;3.90;0.90;;;;;;;;;;5059403;28;20059;-67
2023/08/26 14:47:07;;;;;;;3.13;0.70;;;;;;;;;;5053128;28;20055;-67